Time;durP1;ratioP1;P1;durP2;ratioP2;P2;SDS_P1;SDS_P2;PMS_P1;PMS_P2;Temp;Humidity;BMP_temperature;BMP_pressure;BME280_temperature;BME280_humidity;BME280_pressure;Samples;Min_cycle;Max_cycle;Signal;HPM_P1;HPM_P2
2023/10/02 00:00:41;;;;;;;3.73;1.57;;;;;;;16.04;100.00;101656.50;5073603;28;20866;-73
2023/10/02 00:03:09;;;;;;;3.03;1.07;;;;;;;16.04;100.00;101661.97;5073483;28;20980;-74
2023/10/02 00:05:41;;;;;;;3.33;1.07;;;;;;;16.02;100.00;101649.75;5083248;22;20497;-71
2023/10/02 00:08:31;;;;;;;3.50;1.70;;;;;;;16.02;100.00;101644.28;5053669;28;20776;-71
2023/10/02 00:11:05;;;;;;;2.90;1.33;;;;;;;16.00;100.00;101649.25;5052938;28;20450;-71
2023/10/02 00:13:31;;;;;;;3.13;1.03;;;;;;;15.99;100.00;101642.19;5053514;28;20426;-71
2023/10/02 00:15:58;;;;;;;3.40;1.70;;;;;;;16.00;100.00;101636.41;5053544;28;20454;-71
2023/10/02 00:18:27;;;;;;;3.80;1.87;;;;;;;15.99;100.00;101644.91;5053635;28;20450;-71
2023/10/02 00:21:17;;;;;;;3.70;1.50;;;;;;;15.96;100.00;101643.59;5053333;28;20531;-71
2023/10/02 00:23:59;;;;;;;2.80;1.30;;;;;;;15.93;100.00;101638.75;5053207;28;20434;-71
2023/10/02 00:26:26;;;;;;;4.23;1.50;;;;;;;15.92;100.00;101637.13;5053078;28;20904;-71
2023/10/02 00:28:53;;;;;;;5.60;1.70;;;;;;;15.89;100.00;101637.75;5053142;28;20953;-71
2023/10/02 00:31:33;;;;;;;4.30;1.47;;;;;;;15.89;100.00;101641.31;5053237;28;20437;-71
2023/10/02 00:34:01;;;;;;;4.67;1.63;;;;;;;15.91;100.00;101637.47;5053461;28;20436;-71
2023/10/02 00:36:30;;;;;;;3.37;1.50;;;;;;;15.88;100.00;101634.22;5053388;28;20462;-71
2023/10/02 00:39:24;;;;;;;3.50;1.40;;;;;;;15.89;100.00;101638.59;5053374;28;20447;-70
2023/10/02 00:44:51;;;;;;;3.20;1.50;;;;;;;15.87;100.00;101629.06;5052962;28;20442;-70
2023/10/02 00:47:15;;;;;;;3.80;1.70;;;;;;;15.85;100.00;101636.78;5053189;28;20484;-70
2023/10/02 00:49:42;;;;;;;7.57;1.90;;;;;;;15.86;100.00;101625.53;5052748;28;20470;-71
2023/10/02 00:52:09;;;;;;;3.60;1.37;;;;;;;15.90;100.00;101625.72;5053326;28;20584;-71
2023/10/02 00:54:37;;;;;;;3.27;1.23;;;;;;;15.93;100.00;101630.53;5056107;28;20442;-70
2023/10/02 00:57:16;;;;;;;3.73;1.33;;;;;;;15.93;100.00;101632.47;5057027;28;20462;-70
2023/10/02 00:59:45;;;;;;;5.03;1.53;;;;;;;15.95;100.00;101638.47;5056767;28;20426;-70
2023/10/02 01:02:17;;;;;;;6.10;2.07;;;;;;;15.95;100.00;101633.00;5056599;28;20442;-70
2023/10/02 01:04:44;;;;;;;4.27;1.60;;;;;;;15.96;100.00;101634.59;5056674;28;20426;-70
2023/10/02 01:07:16;;;;;;;3.83;1.30;;;;;;;15.96;100.00;101638.13;5056024;28;20494;-70
2023/10/02 01:10:07;;;;;;;5.00;1.63;;;;;;;16.01;100.00;101634.47;5056618;28;20917;-70
2023/10/02 01:12:43;;;;;;;3.83;1.67;;;;;;;16.00;100.00;101643.78;5056279;28;20957;-70
2023/10/02 01:15:12;;;;;;;5.83;1.93;;;;;;;16.04;100.00;101636.59;5056800;28;20418;-70
2023/10/02 01:17:41;;;;;;;3.50;1.77;;;;;;;16.06;100.00;101643.34;5056737;28;20454;-70
2023/10/02 01:20:20;;;;;;;4.70;1.90;;;;;;;16.11;100.00;101647.88;5056321;28;20536;-70
2023/10/02 01:22:51;;;;;;;3.23;1.13;;;;;;;16.13;100.00;101643.72;5056293;28;20410;-70
2023/10/02 01:25:23;;;;;;;4.03;1.40;;;;;;;16.14;100.00;101639.06;5056239;28;20429;-70
2023/10/02 01:27:51;;;;;;;3.60;1.53;;;;;;;16.15;100.00;101640.66;5056387;28;20520;-70
2023/10/02 01:30:20;;;;;;;3.47;1.20;;;;;;;16.18;100.00;101640.03;5055855;28;20445;-70
2023/10/02 01:33:14;;;;;;;5.10;1.83;;;;;;;16.20;100.00;101647.91;5055896;28;20454;-70
2023/10/02 01:35:46;;;;;;;4.80;1.50;;;;;;;16.19;100.00;101643.56;5056532;28;20437;-70
2023/10/02 01:38:14;;;;;;;4.37;2.17;;;;;;;16.19;100.00;101638.91;5056006;28;20936;-70
2023/10/02 01:40:48;;;;;;;4.90;2.07;;;;;;;16.17;100.00;101632.97;5055899;28;20801;-70
2023/10/02 01:43:16;;;;;;;2.77;1.23;;;;;;;16.10;100.00;101643.53;5055918;28;20438;-70
2023/10/02 01:45:44;;;;;;;5.20;1.50;;;;;;;16.07;100.00;101642.25;5055847;28;20592;-70
2023/10/02 01:48:13;;;;;;;5.30;2.00;;;;;;;16.06;100.00;101643.34;5056037;28;20868;-70
2023/10/02 01:50:41;;;;;;;5.90;1.53;;;;;;;16.02;100.00;101636.06;5056030;28;20443;-70
2023/10/02 01:53:25;;;;;;;5.33;1.63;;;;;;;16.06;100.00;101637.88;5055733;28;20991;-70
2023/10/02 01:56:00;;;;;;;3.63;1.50;;;;;;;16.10;100.00;101632.59;5055305;28;20419;-70
2023/10/02 01:58:27;;;;;;;3.90;1.50;;;;;;;16.08;100.00;101632.91;5055735;28;20510;-70
2023/10/02 02:00:54;;;;;;;2.67;1.23;;;;;;;16.13;100.00;101635.50;5055543;28;20449;-70
2023/10/02 02:03:22;;;;;;;3.90;1.57;;;;;;;16.14;100.00;101642.59;5055315;28;20489;-70
2023/10/02 02:05:49;;;;;;;3.37;1.37;;;;;;;16.17;100.00;101643.91;5054916;28;20492;-70
2023/10/02 02:08:25;;;;;;;3.53;1.80;;;;;;;16.20;100.00;101631.50;5055422;28;20442;-70
2023/10/02 02:11:14;;;;;;;4.87;1.40;;;;;;;16.20;100.00;101637.78;5055439;28;20426;-70
2023/10/02 02:13:44;;;;;;;4.63;1.87;;;;;;;16.19;100.00;101638.09;5055722;28;20435;-70
2023/10/02 02:16:15;;;;;;;4.67;1.97;;;;;;;16.22;100.00;101645.69;5054933;28;20966;-71
2023/10/02 02:18:42;;;;;;;3.30;1.50;;;;;;;16.21;100.00;101642.16;5055309;28;20477;-71
2023/10/02 02:21:13;;;;;;;5.37;1.90;;;;;;;16.21;100.00;101631.22;5055214;28;20487;-71
2023/10/02 02:23:40;;;;;;;5.97;1.87;;;;;;;16.25;100.00;101631.41;5054821;28;20902;-71
2023/10/02 02:26:08;;;;;;;4.93;1.53;;;;;;;16.27;100.00;101629.97;5055171;28;20514;-71
2023/10/02 02:28:43;;;;;;;3.43;1.10;;;;;;;16.28;100.00;101631.56;5055395;28;20442;-71
2023/10/02 02:31:29;;;;;;;3.07;1.40;;;;;;;16.29;100.00;101619.53;5054734;28;20465;-71
2023/10/02 02:33:57;;;;;;;4.70;2.00;;;;;;;16.28;100.00;101626.09;5055230;28;20431;-71
2023/10/02 02:36:25;;;;;;;3.80;1.60;;;;;;;16.30;100.00;101621.13;5055346;28;20465;-71
2023/10/02 02:39:08;;;;;;;4.43;1.63;;;;;;;16.28;100.00;101626.09;5055507;28;20445;-71
2023/10/02 02:41:37;;;;;;;3.30;1.87;;;;;;;16.25;100.00;101624.00;5055017;28;20458;-71
2023/10/02 02:44:04;;;;;;;3.80;1.33;;;;;;;16.20;100.00;101624.13;5054766;28;20442;-71
2023/10/02 02:46:32;;;;;;;4.40;1.70;;;;;;;16.14;100.00;101620.72;5054569;28;20486;-71
2023/10/02 02:49:00;;;;;;;3.90;1.63;;;;;;;16.13;100.00;101629.25;5054293;28;20856;-71
2023/10/02 02:51:27;;;;;;;4.80;2.10;;;;;;;16.11;100.00;101626.81;5054761;28;20812;-72
2023/10/02 02:53:53;;;;;;;4.73;1.57;;;;;;;16.11;100.00;101623.25;5054598;28;20489;-72
2023/10/02 02:56:22;;;;;;;3.40;1.43;;;;;;;16.13;100.00;101621.03;5054520;28;20468;-72
2023/10/02 02:58:52;;;;;;;4.27;1.63;;;;;;;16.14;100.00;101617.97;5054672;28;20826;-72
2023/10/02 03:01:23;;;;;;;4.70;1.87;;;;;;;16.17;100.00;101616.56;5054560;28;20473;-72
2023/10/02 03:03:49;;;;;;;2.93;1.00;;;;;;;16.16;100.00;101614.97;5054736;28;20434;-72
2023/10/02 03:06:18;;;;;;;3.33;1.50;;;;;;;16.17;100.00;101615.75;5054060;28;20497;-72
2023/10/02 03:08:46;;;;;;;2.47;1.07;;;;;;;16.14;100.00;101617.19;5054330;28;20526;-72
2023/10/02 03:11:19;;;;;;;5.50;1.50;;;;;;;16.08;100.00;101605.56;5054284;28;20446;-72
2023/10/02 03:13:47;;;;;;;4.57;1.30;;;;;;;16.08;100.00;101612.97;5053863;28;20802;-72
2023/10/02 03:16:19;;;;;;;3.07;1.40;;;;;;;16.04;100.00;101611.97;5053228;28;20459;-72
2023/10/02 03:18:48;;;;;;;4.30;1.70;;;;;;;15.99;100.00;101614.84;5054169;28;20429;-72
2023/10/02 03:21:23;;;;;;;4.07;1.20;;;;;;;15.94;100.00;101601.28;5054004;28;20447;-72
2023/10/02 03:23:51;;;;;;;3.80;1.70;;;;;;;15.85;100.00;101606.72;5054242;28;20422;-72
2023/10/02 03:26:37;;;;;;;2.90;0.97;;;;;;;15.79;100.00;101614.22;5054317;28;20577;-72
2023/10/02 03:29:05;;;;;;;4.20;1.57;;;;;;;15.71;100.00;101612.22;5054260;28;20422;-72
2023/10/02 03:31:36;;;;;;;3.37;1.20;;;;;;;15.65;100.00;101605.28;5053755;28;20964;-72
2023/10/02 03:34:25;;;;;;;3.90;1.10;;;;;;;15.63;100.00;101612.97;5054121;28;20419;-72
2023/10/02 03:36:54;;;;;;;3.07;1.00;;;;;;;15.59;100.00;101606.50;5053718;28;20465;-72
2023/10/02 03:42:11;;;;;;;3.60;1.40;;;;;;;15.50;100.00;101603.72;5053485;28;20540;-72
2023/10/02 03:44:38;;;;;;;4.10;1.50;;;;;;;15.45;100.00;101603.00;5053426;28;20891;-72
2023/10/02 03:47:06;;;;;;;2.87;1.10;;;;;;;15.40;100.00;101601.19;5053314;28;20986;-72
2023/10/02 03:49:33;;;;;;;4.73;1.60;;;;;;;15.34;100.00;101595.06;5053984;28;20492;-72
2023/10/02 03:52:00;;;;;;;4.00;1.50;;;;;;;15.33;100.00;101601.63;5053233;28;20852;-72
2023/10/02 03:54:29;;;;;;;3.00;1.40;;;;;;;15.29;100.00;101591.63;5053567;28;20443;-72
2023/10/02 03:56:56;;;;;;;6.33;1.70;;;;;;;15.25;100.00;101594.19;5053181;28;21005;-72
2023/10/02 03:59:26;;;;;;;4.23;1.80;;;;;;;15.19;100.00;101587.22;5053578;28;20442;-72
2023/10/02 04:01:57;;;;;;;3.70;1.33;;;;;;;15.18;100.00;101588.31;5054381;28;20426;-72
2023/10/02 04:04:32;;;;;;;3.83;1.63;;;;;;;15.14;100.00;101590.06;5053583;28;20442;-72
2023/10/02 04:06:58;;;;;;;3.03;1.07;;;;;;;15.14;100.00;101590.06;5053019;28;20493;-72
2023/10/02 04:09:25;;;;;;;3.37;1.30;;;;;;;15.05;100.00;101587.25;5053408;28;20521;-72
2023/10/02 04:11:53;;;;;;;4.37;1.40;;;;;;;15.04;100.00;101582.91;5053423;28;20485;-72
2023/10/02 04:14:31;;;;;;;4.73;2.03;;;;;;;15.01;100.00;101585.44;5053600;28;20448;-72
2023/10/02 04:17:09;;;;;;;4.17;1.60;;;;;;;14.99;100.00;101579.47;5053278;28;20458;-72
2023/10/02 04:19:40;;;;;;;3.83;1.70;;;;;;;14.96;100.00;101577.34;5053080;28;20938;-72
2023/10/02 04:22:16;;;;;;;3.80;1.40;;;;;;;14.92;100.00;101571.72;5053312;28;20506;-72
2023/10/02 04:24:51;;;;;;;4.77;2.00;;;;;;;14.88;100.00;101579.72;5053359;28;20426;-72
2023/10/02 04:27:24;;;;;;;4.50;1.37;;;;;;;14.85;100.00;101574.06;5054690;28;20485;-72
2023/10/02 04:32:33;;;;;;;5.30;1.90;;;;;;;14.75;100.00;101566.91;5057448;28;20932;-72
2023/10/02 04:35:02;;;;;;;3.63;1.53;;;;;;;14.72;100.00;101567.50;5056940;28;20528;-72
2023/10/02 04:37:31;;;;;;;3.60;1.50;;;;;;;14.70;100.00;101563.44;5057421;28;20465;-72
2023/10/02 04:40:14;;;;;;;3.83;1.60;;;;;;;14.68;100.00;101571.94;5057117;28;20438;-72
2023/10/02 04:43:14;;;;;;;6.40;1.90;;;;;;;14.66;100.00;101562.47;5057095;28;20430;-72
2023/10/02 04:45:41;;;;;;;6.00;1.73;;;;;;;14.60;100.00;101559.00;5063938;28;20509;-73
2023/10/02 04:48:09;;;;;;;4.30;1.60;;;;;;;14.57;100.00;101568.63;5066551;28;20477;-70
2023/10/02 04:50:45;;;;;;;4.17;1.67;;;;;;;14.56;100.00;101566.19;5064483;28;20944;-71
2023/10/02 04:53:22;;;;;;;3.17;1.37;;;;;;;14.52;100.00;101581.53;5057009;28;20778;-71
2023/10/02 04:55:57;;;;;;;3.50;1.33;;;;;;;14.46;100.00;101575.34;5056879;28;20417;-72
2023/10/02 04:58:27;;;;;;;7.37;2.20;;;;;;;14.42;100.00;101573.53;5057082;28;20516;-72
2023/10/02 05:03:49;;;;;;;4.73;1.50;;;;;;;14.39;100.00;101581.22;5056888;28;20433;-72
2023/10/02 05:06:16;;;;;;;4.13;1.40;;;;;;;14.38;100.00;101571.41;5057076;28;20473;-73
2023/10/02 05:09:20;;;;;;;4.13;1.60;;;;;;;14.37;100.00;101572.50;5056878;28;20450;-73
2023/10/02 05:11:46;;;;;;;5.07;1.70;;;;;;;14.35;100.00;101574.75;5056103;28;20441;-72
2023/10/02 05:14:13;;;;;;;4.87;1.80;;;;;;;14.29;100.00;101572.41;5056794;28;20431;-72
2023/10/02 05:16:42;;;;;;;3.80;1.93;;;;;;;14.24;100.00;101570.59;5056654;28;20466;-73
2023/10/02 05:19:14;;;;;;;4.40;1.80;;;;;;;14.17;100.00;101564.75;5056289;28;20446;-73
2023/10/02 05:21:49;;;;;;;4.30;1.80;;;;;;;14.12;100.00;101564.81;5056254;28;20518;-73
2023/10/02 05:24:18;;;;;;;3.53;1.40;;;;;;;14.07;100.00;101567.63;5056333;28;20426;-73
2023/10/02 05:26:44;;;;;;;3.67;1.27;;;;;;;14.05;100.00;101567.13;5056654;28;20486;-72
2023/10/02 05:29:17;;;;;;;7.53;1.90;;;;;;;14.03;100.00;101563.88;5056211;28;20446;-72
2023/10/02 05:31:45;;;;;;;6.20;1.83;;;;;;;14.03;100.00;101563.88;5056078;28;20948;-72
2023/10/02 05:34:21;;;;;;;3.77;1.80;;;;;;;14.05;100.00;101567.94;5056058;28;20441;-72
2023/10/02 05:37:11;;;;;;;6.40;2.10;;;;;;;14.06;100.00;101571.47;5055685;28;21032;-72
2023/10/02 05:39:40;;;;;;;2.70;1.20;;;;;;;14.13;100.00;101574.63;5055113;28;20788;-72
2023/10/02 05:42:06;;;;;;;3.93;1.30;;;;;;;14.12;100.00;101582.00;5055608;28;20972;-72
2023/10/02 05:44:34;;;;;;;3.17;1.57;;;;;;;14.13;100.00;101583.59;5056197;28;20474;-72
2023/10/02 05:47:06;;;;;;;3.77;1.40;;;;;;;14.13;100.00;101580.88;5055772;28;20767;-71
2023/10/02 05:49:33;;;;;;;3.90;1.70;;;;;;;14.17;100.00;101585.75;5056029;28;20441;-71
2023/10/02 05:52:02;;;;;;;4.13;1.30;;;;;;;14.20;100.00;101596.81;5056069;28;20488;-71
2023/10/02 05:54:29;;;;;;;5.67;2.40;;;;;;;14.26;100.00;101597.56;5056254;28;20455;-71
2023/10/02 05:57:08;;;;;;;5.70;1.90;;;;;;;14.30;100.00;101604.03;5055932;28;20455;-71
2023/10/02 05:59:45;;;;;;;4.10;1.83;;;;;;;14.34;100.00;101597.66;5056008;28;20423;-71
2023/10/02 06:02:12;;;;;;;4.43;1.57;;;;;;;14.41;100.00;101599.97;5055682;28;20894;-71
2023/10/02 06:04:43;;;;;;;4.47;2.07;;;;;;;14.39;100.00;101602.22;5055415;28;20871;-71
2023/10/02 06:07:15;;;;;;;4.13;1.53;;;;;;;14.46;100.00;101609.97;5085396;22;21007;-68
2023/10/02 06:09:44;;;;;;;4.37;2.30;;;;;;;14.49;100.00;101607.50;5075323;28;20483;-68
2023/10/02 06:12:11;;;;;;;5.20;1.60;;;;;;;14.54;100.00;101612.84;5075213;28;20452;-68
2023/10/02 06:14:39;;;;;;;5.07;1.77;;;;;;;14.58;100.00;101611.13;5075376;28;20764;-68
2023/10/02 06:17:11;;;;;;;3.77;1.63;;;;;;;14.62;100.00;101614.88;5075317;28;20453;-68
2023/10/02 06:19:43;;;;;;;4.70;1.80;;;;;;;14.68;100.00;101610.13;5075194;28;20932;-68
2023/10/02 06:22:13;;;;;;;4.63;1.67;;;;;;;14.74;100.00;101611.66;5075161;28;20421;-68
2023/10/02 06:24:40;;;;;;;4.10;1.73;;;;;;;14.80;100.00;101610.44;5075085;28;20453;-68
2023/10/02 06:27:13;;;;;;;7.47;2.13;;;;;;;14.89;100.00;101616.78;5074529;28;20576;-68
2023/10/02 06:29:43;;;;;;;3.90;1.50;;;;;;;14.96;100.00;101610.91;5075058;28;20521;-68
2023/10/02 06:32:14;;;;;;;4.97;2.30;;;;;;;15.04;100.00;101606.66;5074970;28;20429;-68
2023/10/02 06:34:43;;;;;;;4.03;1.57;;;;;;;15.11;100.00;101607.84;5074934;28;20425;-67
2023/10/02 06:37:13;;;;;;;3.67;1.50;;;;;;;15.18;100.00;101606.63;5074608;28;21040;-67
2023/10/02 06:39:41;;;;;;;5.97;2.07;;;;;;;15.26;100.00;101605.91;5074366;28;20528;-66
2023/10/02 06:42:09;;;;;;;4.23;2.00;;;;;;;15.31;100.00;101606.56;5074847;28;20445;-67
2023/10/02 06:44:41;;;;;;;7.80;2.87;;;;;;;15.35;100.00;101599.38;5075021;28;20524;-68
2023/10/02 06:47:11;;;;;;;5.00;1.80;;;;;;;15.35;100.00;101599.38;5074539;28;21010;-68
2023/10/02 06:49:40;;;;;;;7.53;2.80;;;;;;;15.34;100.00;101603.25;5075182;28;20422;-67
2023/10/02 06:52:15;;;;;;;4.20;1.87;;;;;;;15.36;100.00;101603.75;5074564;28;20443;-68
2023/10/02 06:54:44;;;;;;;4.30;1.93;;;;;;;15.43;100.00;101599.78;5074311;28;20516;-67
2023/10/02 06:57:13;;;;;;;5.90;2.30;;;;;;;15.48;100.00;101605.13;5074636;28;20524;-67
2023/10/02 06:59:51;;;;;;;5.43;2.10;;;;;;;15.59;100.00;101610.03;5074085;28;20438;-68
2023/10/02 07:02:18;;;;;;;6.40;2.70;;;;;;;15.68;100.00;101612.06;5074342;28;20578;-70
2023/10/02 07:04:47;;;;;;;5.00;2.27;;;;;;;15.80;100.00;101606.84;5074786;28;20492;-69
2023/10/02 07:07:15;;;;;;;4.87;2.33;;;;;;;15.89;100.00;101611.25;5074038;28;20476;-70
2023/10/02 07:09:43;;;;;;;3.53;1.30;;;;;;;15.97;100.00;101603.41;5074182;28;20445;-69
2023/10/02 07:12:13;;;;;;;6.63;2.50;;;;;;;16.03;100.00;101608.44;5073792;28;20452;-69
2023/10/02 07:14:42;;;;;;;3.90;2.03;;;;;;;16.12;100.00;101614.78;5074089;28;20449;-68
2023/10/02 07:17:16;;;;;;;6.10;1.93;;;;;;;16.20;100.00;101610.44;5074176;28;20507;-69
2023/10/02 07:19:52;;;;;;;7.57;2.37;;;;;;;16.26;100.00;101609.22;5073910;28;20425;-69
2023/10/02 07:22:24;;;;;;;5.17;2.20;;;;;;;16.36;100.00;101610.84;5074574;28;20453;-69
2023/10/02 07:24:52;;;;;;;5.40;1.73;;;;;;;16.50;100.00;101614.28;5073794;28;20441;-69
2023/10/02 07:27:26;;;;;;;6.03;2.67;;;;;;;16.63;100.00;101601.63;5074136;28;20457;-69
2023/10/02 07:29:54;;;;;;;4.60;1.67;;;;;;;16.75;100.00;101604.59;5073705;28;20428;-68
2023/10/02 07:32:22;;;;;;;4.47;2.10;;;;;;;16.90;100.00;101606.88;5073792;28;20862;-68
2023/10/02 07:34:50;;;;;;;5.13;2.10;;;;;;;17.09;100.00;101603.06;5073408;28;21020;-68
2023/10/02 07:37:21;;;;;;;10.27;2.20;;;;;;;17.24;100.00;101596.31;5073262;28;20893;-69
2023/10/02 07:39:51;;;;;;;3.40;1.60;;;;;;;17.31;100.00;101600.19;5074090;28;20471;-69
2023/10/02 07:42:19;;;;;;;6.00;2.20;;;;;;;17.37;100.00;101604.38;5074048;28;20429;-69
2023/10/02 07:44:46;;;;;;;4.60;1.80;;;;;;;17.51;100.00;101601.47;5073665;28;20814;-68
2023/10/02 07:47:17;;;;;;;4.57;2.03;;;;;;;17.68;100.00;101608.88;5073763;28;20536;-68
2023/10/02 07:49:46;;;;;;;6.23;2.40;;;;;;;17.85;100.00;101608.91;5073983;28;20484;-68
2023/10/02 07:52:26;;;;;;;7.60;2.40;;;;;;;17.97;100.00;101602.72;5073532;28;20441;-68
2023/10/02 07:54:58;;;;;;;4.73;2.33;;;;;;;18.12;100.00;101596.72;5073665;28;20421;-68
2023/10/02 07:57:31;;;;;;;6.63;2.43;;;;;;;18.29;100.00;101601.38;5073417;28;20489;-68
2023/10/02 07:59:58;;;;;;;7.60;2.47;;;;;;;18.55;100.00;101611.41;5073534;28;20461;-69
2023/10/02 08:02:30;;;;;;;6.93;2.17;;;;;;;18.76;98.79;101611.50;5073118;28;20532;-69
2023/10/02 08:04:59;;;;;;;4.20;1.90;;;;;;;18.92;98.66;101606.25;5073813;28;20441;-69
2023/10/02 08:07:26;;;;;;;4.03;1.73;;;;;;;19.05;98.39;101616.19;5073227;28;20509;-69
2023/10/02 08:09:55;;;;;;;7.37;2.30;;;;;;;19.14;96.89;101614.97;5073411;28;20525;-69
2023/10/02 08:12:34;;;;;;;6.13;2.40;;;;;;;19.34;94.74;101607.88;5073761;28;20437;-69
2023/10/02 08:15:26;;;;;;;8.03;2.40;;;;;;;19.48;95.03;101612.28;5073676;28;20458;-69
2023/10/02 08:18:03;;;;;;;4.87;2.20;;;;;;;19.57;95.05;101615.81;5072713;28;20481;-68
2023/10/02 08:20:36;;;;;;;7.07;2.37;;;;;;;19.77;89.50;101619.69;5073740;28;20433;-68
2023/10/02 08:23:21;;;;;;;4.20;1.70;;;;;;;19.93;89.39;101611.59;5073633;28;20418;-68
2023/10/02 08:26:00;;;;;;;6.10;2.10;;;;;;;19.97;89.64;101609.78;5073141;28;20807;-70
2023/10/02 08:28:29;;;;;;;4.63;1.73;;;;;;;20.01;90.66;101613.44;5073385;28;20456;-68
2023/10/02 08:31:13;;;;;;;10.00;3.40;;;;;;;20.06;92.18;101610.50;5073211;28;20441;-68
2023/10/02 08:33:43;;;;;;;9.80;2.73;;;;;;;20.06;93.37;101605.00;5073277;28;20433;-67
2023/10/02 08:36:12;;;;;;;4.87;2.20;;;;;;;20.04;94.22;101610.81;5073397;28;20461;-67
2023/10/02 08:38:40;;;;;;;3.87;1.50;;;;;;;20.03;95.42;101616.66;5073616;28;20503;-67
2023/10/02 08:41:08;;;;;;;7.60;2.73;;;;;;;20.05;94.75;101611.63;5073152;28;20937;-68
2023/10/02 08:43:41;;;;;;;5.33;2.33;;;;;;;20.10;92.80;101601.22;5073098;28;20442;-68
2023/10/02 08:46:19;;;;;;;5.23;1.87;;;;;;;20.24;88.93;101603.66;5072991;28;20548;-67
2023/10/02 08:48:47;;;;;;;5.30;1.80;;;;;;;20.35;87.99;101606.75;5073193;28;20421;-67
2023/10/02 08:51:26;;;;;;;4.77;1.77;;;;;;;20.48;87.44;101604.84;5073215;28;20442;-67
2023/10/02 08:53:57;;;;;;;5.53;2.23;;;;;;;20.63;85.62;101607.72;5072791;28;20517;-67
2023/10/02 08:56:25;;;;;;;9.60;2.30;;;;;;;20.80;82.61;101606.66;5073430;28;20461;-66
2023/10/02 08:59:15;;;;;;;7.73;3.57;;;;;;;20.88;84.13;101608.50;5072838;28;20492;-66
2023/10/02 09:01:40;;;;;;;3.80;1.60;;;;;;;20.90;84.43;101611.72;5072403;28;20975;-66
2023/10/02 09:06:59;;;;;;;5.10;2.10;;;;;;;21.11;83.94;101610.75;5072596;28;20460;-67
2023/10/02 09:09:28;;;;;;;5.43;1.80;;;;;;;21.23;80.23;101607.19;5072654;28;20712;-67
2023/10/02 09:11:57;;;;;;;6.53;2.47;;;;;;;21.36;78.15;101609.59;5072723;28;20974;-67
2023/10/02 09:14:39;;;;;;;5.23;2.20;;;;;;;21.44;78.66;101599.56;5073982;28;20998;-67
2023/10/02 09:17:12;;;;;;;5.37;2.33;;;;;;;21.52;79.55;101604.16;5076143;28;20999;-68
2023/10/02 09:19:39;;;;;;;5.27;2.37;;;;;;;21.64;77.47;101606.03;5076324;28;20836;-68
2023/10/02 09:22:13;;;;;;;5.90;2.50;;;;;;;21.71;78.23;101606.25;5076693;28;20441;-68
2023/10/02 09:24:41;;;;;;;5.87;2.70;;;;;;;21.73;78.27;101592.09;5076554;28;20487;-68
2023/10/02 09:27:27;;;;;;;7.53;2.73;;;;;;;21.84;77.76;101593.19;5076727;28;20461;-67
2023/10/02 09:32:49;;;;;;;7.23;2.60;;;;;;;22.19;76.01;101582.31;5076237;28;20415;-67
2023/10/02 09:35:29;;;;;;;6.50;2.37;;;;;;;22.22;77.46;101578.81;5076801;28;20422;-67
2023/10/02 09:38:02;;;;;;;5.87;2.07;;;;;;;22.24;78.88;101587.56;5075827;28;20481;-68
2023/10/02 09:40:51;;;;;;;5.60;2.60;;;;;;;22.26;77.63;101585.25;5075999;28;20429;-67
2023/10/02 09:43:20;;;;;;;5.83;2.40;;;;;;;22.41;74.47;101573.41;5075756;28;20835;-67
2023/10/02 09:45:48;;;;;;;4.83;2.03;;;;;;;22.53;75.58;101572.47;5075764;28;20441;-67
2023/10/02 09:51:15;;;;;;;5.57;2.20;;;;;;;22.85;72.35;101573.25;5075927;28;20818;-67
2023/10/02 09:54:04;;;;;;;5.73;2.30;;;;;;;22.97;71.61;101568.78;5075860;28;20432;-67
2023/10/02 09:56:51;;;;;;;5.83;2.23;;;;;;;23.09;72.48;101568.66;5075455;28;20869;-67
2023/10/02 09:59:19;;;;;;;6.10;2.60;;;;;;;23.17;70.15;101570.41;5075595;28;20465;-67
2023/10/02 10:02:49;;;;;;;6.00;2.27;;;;;;;23.24;70.92;101561.44;5075554;28;20448;-67
2023/10/02 10:08:28;;;;;;;4.53;1.90;;;;;;;23.41;71.90;101564.56;5075212;28;20417;-67
2023/10/02 10:10:57;;;;;;;4.97;2.00;;;;;;;23.54;73.03;101561.66;5075505;28;20851;-67
2023/10/02 10:13:31;;;;;;;5.63;2.00;;;;;;;23.67;68.31;101557.59;5076004;28;20449;-67
2023/10/02 10:16:34;;;;;;;11.30;2.63;;;;;;;23.75;67.20;101564.84;5074950;28;20507;-67
2023/10/02 10:19:32;;;;;;;4.90;1.90;;;;;;;23.80;66.33;101556.25;5074977;28;20972;-67
2023/10/02 10:22:00;;;;;;;4.83;1.70;;;;;;;23.89;67.72;101561.53;5075194;28;20501;-66
2023/10/02 10:24:56;;;;;;;3.50;1.30;;;;;;;24.00;68.04;101556.22;5074904;28;20448;-66
2023/10/02 10:27:54;;;;;;;3.57;1.20;;;;;;;24.03;66.24;101559.03;5074778;28;20472;-66
2023/10/02 10:30:44;;;;;;;3.50;1.40;;;;;;;24.01;65.62;101547.53;5075054;28;20461;-66
2023/10/02 10:33:38;;;;;;;5.57;1.73;;;;;;;23.99;68.07;101552.63;5074959;28;20430;-66
2023/10/02 10:36:35;;;;;;;5.40;2.10;;;;;;;24.11;67.11;101552.44;5075291;28;20470;-66
2023/10/02 10:41:57;;;;;;;5.20;1.60;;;;;;;24.27;64.80;101549.56;5073855;28;20932;-66
2023/10/02 10:44:34;;;;;;;6.87;2.53;;;;;;;24.36;66.46;101544.56;5075084;28;20445;-66
2023/10/02 10:47:03;;;;;;;10.83;2.67;;;;;;;24.47;63.42;101541.97;5074410;28;20891;-66
2023/10/02 10:50:11;;;;;;;2.77;1.10;;;;;;;24.47;62.42;101533.66;5074996;28;20444;-65
2023/10/02 10:52:39;;;;;;;4.20;1.70;;;;;;;24.39;63.66;101535.53;5074936;28;20425;-65
2023/10/02 10:58:03;;;;;;;5.40;1.60;;;;;;;24.59;63.98;101524.34;5111414;27;20525;-65
2023/10/02 11:00:32;;;;;;;3.23;1.47;;;;;;;24.70;63.02;101522.50;5110733;28;20444;-65
2023/10/02 11:03:04;;;;;;;4.00;1.90;;;;;;;24.84;63.58;101516.38;5111496;28;20440;-65
2023/10/02 11:05:33;;;;;;;5.00;1.97;;;;;;;25.07;63.99;101513.50;5111341;28;20420;-65
2023/10/02 11:08:24;;;;;;;6.00;1.87;;;;;;;25.32;60.52;101513.78;5111718;28;20492;-65
2023/10/02 11:11:18;;;;;;;4.07;1.70;;;;;;;25.76;61.49;101508.34;5111315;28;20432;-65
2023/10/02 11:14:01;;;;;;;6.93;2.40;;;;;;;26.07;59.44;101509.00;5111175;28;20424;-65
2023/10/02 11:16:34;;;;;;;7.90;2.90;;;;;;;26.58;56.75;101516.53;5111310;28;20483;-65
2023/10/02 11:19:14;;;;;;;6.83;1.60;;;;;;;27.20;55.76;101516.44;5111164;28;20416;-65
2023/10/02 11:21:48;;;;;;;4.13;1.60;;;;;;;28.01;55.98;101520.56;5110907;28;20420;-67
2023/10/02 11:24:22;;;;;;;5.57;2.30;;;;;;;28.46;52.18;101522.94;5110685;28;20872;-68
2023/10/02 11:26:53;;;;;;;5.87;1.90;;;;;;;28.45;50.84;101518.56;5110936;28;20527;-70
2023/10/02 11:29:21;;;;;;;4.40;1.60;;;;;;;28.77;52.11;101516.50;5110975;28;20424;-67
2023/10/02 11:32:18;;;;;;;6.30;2.20;;;;;;;28.87;50.68;101515.66;5110549;28;20946;-67
2023/10/02 11:34:45;;;;;;;3.73;1.50;;;;;;;29.06;48.63;101508.06;5110321;28;20450;-67
2023/10/02 11:37:12;;;;;;;5.23;1.83;;;;;;;29.08;49.06;101508.44;5110646;28;20574;-67
2023/10/02 11:39:39;;;;;;;5.67;2.20;;;;;;;28.98;48.44;101504.50;5111043;28;20503;-67
2023/10/02 11:42:06;;;;;;;6.30;2.23;;;;;;;29.14;49.53;101504.81;5110519;28;20535;-67
2023/10/02 11:44:34;;;;;;;4.07;1.50;;;;;;;29.53;47.49;101509.38;5110278;28;20447;-67
2023/10/02 11:47:00;;;;;;;3.53;1.70;;;;;;;29.95;47.04;101515.06;5110665;28;20543;-67
2023/10/02 11:49:29;;;;;;;5.70;1.93;;;;;;;30.32;45.85;101514.34;5111249;28;20522;-67
2023/10/02 11:52:00;;;;;;;6.30;2.00;;;;;;;30.63;46.00;101520.81;5110589;28;20473;-67
2023/10/02 11:54:27;;;;;;;5.03;1.93;;;;;;;30.48;45.94;101514.59;5110793;28;20415;-67
2023/10/02 11:56:53;;;;;;;4.10;1.23;;;;;;;30.65;46.26;101510.81;5109819;28;20479;-67
2023/10/02 11:59:20;;;;;;;4.73;1.53;;;;;;;30.53;45.05;101508.53;5109864;28;20439;-67
2023/10/02 12:01:48;;;;;;;5.27;2.33;;;;;;;30.67;43.25;101504.78;5110630;28;20436;-67
2023/10/02 12:04:15;;;;;;;3.77;1.57;;;;;;;30.53;45.40;101502.94;5110523;28;20440;-67
2023/10/02 12:06:42;;;;;;;6.50;2.00;;;;;;;30.80;45.06;101505.06;5110528;22;20557;-74
2023/10/02 12:09:17;;;;;;;3.50;1.30;;;;;;;31.18;44.83;101500.19;5077497;28;20437;-74
2023/10/02 12:11:44;;;;;;;3.17;1.80;;;;;;;31.75;42.21;101510.56;5076286;28;20414;-75
2023/10/02 12:14:11;;;;;;;3.87;1.47;;;;;;;31.63;42.54;101499.94;5075719;28;20865;-74